Skip Navigation Links
NOAA logo - Click to go to the NOAA homepage
NOAA's National Weather Service
Alaska Aviation Weather Unit
  NWS logo - Click to go to the NWS homepage
Left Navbar Graphic     10 AKDT = 18 GMT

   
NOAA is celebrating 200 years of science, service, and stewardship. Visit the NOAA 200th celebration Web site to learn more.
USA.gov is the U.S. Government's official Web portal to all Federal, state and local government Web resources and services.
Facebook
NWS on Facebook

Important Change Regarding the AAWU Web Presence

 

Over the last several months, the AAWU has been working to navigate its webpages to a nationally supported server. Security, as well as other needs, have necessitated the change.  We have been given an extension for the site changeover while we diligently work at addressing feedback received. As of July 14, 2017, aawu.arh.noaa.gov will be discontinued. The new AAWU web address is weather.gov/aawu. It is now live and will run in-parallel with the old site until it is discontinued on July 14, 2017. Please continue to send any feedback or questions regarding the new webpages to nws.ar.aawu.webauthors@noaa.gov.  Thank you for your patience during this time of transition.
AAWU Home :: Display TAF Add Bookmark
TAF PAQT 261728Z 2618/2718  22012KT P6SM BKN035 BKN045
     FM270000 21010KT P6SM SCT050 BKN100
     FM270800 10007KT P6SM SCT050 BKN100=

3361
FTAK31 PAFA 261728
TAFABT
TAF
METAR PAQT 261253Z AUTO 22010KT 10SM OVC034 M01/M03 A3013 RMK AO2 SLP204
     T10061033 TSNO=

METAR PAQT 261353Z AUTO 23009KT 10SM FEW033 M02/M03 A3013 RMK AO2
     UPB08E11SNB1256E08 SLP204 P0000 T10171033 TSNO=

PAQT 261416Z AUTO 23009KT 10SM FEW006 M02/M02 A3013=

METAR PAQT 261453Z AUTO 23009KT 10SM CLR M02/M02 A3014 RMK AO2 SLP205
     60000 T10221022 51003 TSNO=

METAR PAQT 261553Z AUTO 22009KT 10SM SCT041 M02/M02 A3014 RMK AO2 SLP208
     T10221022 TSNO=

METAR PAQT 261653Z AUTO 22012KT 10SM BKN035 BKN043 M02/M02 A3014 RMK AO2
     SLP207 T10171022 TSNO=

METAR PAQT 261753Z AUTO 23012KT 10SM SCT018 OVC036 M01/M02 A3014 RMK AO2
     SLP209 60000 T10111017 10000 21028 51003 TSNO=

PAQT 261801Z AUTO 23011KT 10SM BKN019 OVC036 M01/M02 A3015=


NOAA's National Weather Service
Alaska Aviation Weather Unit
6930 Sand Lake Road
Anchorage, AK 99502-1845
Disclaimer
Credits
Glossary
Privacy Policy
About Us
Career Opportunities
Contact AAWU Internet Services Site last modified: April, 17th 2012